Wind EuroAirport

Messzeit Windrichtung Windgeschwindigkeit [Knoten] Rückenwind Nordpiste [Knoten] METAR
2020-10-26 06:00 W 260° 13 2 LFSB 260500Z AUTO 26013KT 9000 RA FEW014/// OVC050/// ///CB 09/08 Q1006 TEMPO 3000 RA BKN012
2020-10-26 05:30 W 260° 12 2 LFSB 260430Z AUTO 26012KT 9999 RA FEW019/// SCT030/// BKN043/// ///CB 09/08 Q1006 TEMPO 3000 RA BKN012
2020-10-26 05:00 W 260° 9 2 LFSB 260400Z AUTO 26009KT 8000 RA FEW041/// OVC050/// ///CB 09/08 Q1005 TEMPO 3000 RA BECMG FEW020 BKN040
2020-10-26 04:30 W 260° 11 2 LFSB 260330Z AUTO 26011KT 9999 RA SCT037/// BKN047/// OVC056/// ///CB 10/08 Q1005 TEMPO 3000 RA BECMG FEW020 BKN040
2020-10-26 04:00 W 250°
(220°–280°)
9 0–5 LFSB 260300Z AUTO 25009KT 220V280 9999 RA SCT042/// BKN048/// OVC060/// ///CB 10/08 Q1005 TEMPO 27015G25KT 3000 RA BECMG FEW020 BKN040
2020-10-26 03:30 W 260° 6 1 LFSB 260230Z AUTO 26006KT 9999 -RA FEW043/// BKN066/// OVC080/// ///TCU 11/09 Q1005 TEMPO 27015G25KT 3000 RA BECMG FEW020 BKN040
2020-10-26 03:00 W 260° 8 1 LFSB 260200Z AUTO 26008KT 9999 -RA FEW027/// BKN064/// OVC074/// ///TCU 11/09 Q1005 TEMPO 27015G25KT 3000 RA BECMG FEW020 BKN040
2020-10-26 02:30 W 260°
(230°–290°)
6 0–4 LFSB 260130Z AUTO 26006KT 230V290 9999 RA FEW020/// OVC060/// ///TCU 11/10 Q1006 TEMPO 27015G25KT 3000 RA BECMG FEW020 BKN040
2020-10-26 02:00 - 3 - LFSB 260100Z AUTO VRB03KT 5000 RA BR FEW029/// SCT034/// BKN041/// ///TCU 12/10 Q1006 TEMPO 27015G25KT BECMG FEW020 BKN040
2020-10-26 01:30 - 2 - LFSB 260030Z AUTO VRB02KT 9999 RA OVC039/// ///TCU 12/10 Q1006 TEMPO 27015G25KT 3000 RA BECMG FEW020 BKN040
2020-10-26 01:00 SW 230°
(190°–270°)
4 0–1 LFSB 260000Z AUTO 23004KT 190V270 9999 OVC034 13/10 Q1005 TEMPO 27015G25KT 3000 RA
2020-10-26 00:30 W 270°
(230°–340°)
3 0–3 LFSB 252330Z AUTO 27003KT 230V340 9999 OVC032 13/10 Q1005 TEMPO 27015G25KT 3000 RA
2020-10-26 00:00 W 270°
(230°–300°)
6 0–5 LFSB 252300Z AUTO 27006KT 230V300 9999 BKN031 OVC062 12/10 Q1005 TEMPO 3000 RA BKN005
2020-10-25 23:30 W 250°
(220°–280°)
4 0–2 LFSB 252230Z AUTO 25004KT 220V280 9999 BKN031 BKN120 11/10 Q1005 TEMPO 3000 RA BKN005
2020-10-25 23:00 - 2 - LFSB 252200Z AUTO VRB02KT CAVOK 12/10 Q1005 TEMPO 3000 RA BKN005
2020-10-25 22:30 - 2 - LFSB 252130Z AUTO VRB02KT CAVOK 13/10 Q1006 TEMPO 3000 RA BKN005
2020-10-25 22:00 W 280°
(230°–310°)
4 0–3 LFSB 252100Z AUTO 28004KT 230V310 CAVOK 13/10 Q1006 TEMPO 3000 RA BKN005
2020-10-25 21:30 W 280°
(220°–310°)
5 0–4 LFSB 252030Z AUTO 28005KT 220V310 CAVOK 12/09 Q1006 TEMPO 3000 RA BKN005
2020-10-25 21:00 - 2 - LFSB 252000Z AUTO VRB02KT CAVOK 14/09 Q1006 NOSIG
2020-10-25 20:30 S 200°
(150°–240°)
3 - LFSB 251930Z AUTO 20003KT 150V240 CAVOK 13/10 Q1006 NOSIG
2020-10-25 20:00 S 160° 6 - LFSB 251900Z AUTO 16006KT CAVOK 14/10 Q1006 BECMG 26010KT
2020-10-25 19:30 SO 130° 4 - LFSB 251830Z AUTO 13004KT CAVOK 14/10 Q1006 BECMG 26010KT
2020-10-25 19:00 S 170°
(140°–200°)
4 - LFSB 251800Z 17004KT 140V200 CAVOK 14/10 Q1007 NOSIG
2020-10-25 18:30 S 170° 5 - LFSB 251730Z 17005KT CAVOK 14/10 Q1006 NOSIG
2020-10-25 18:00 SO 150° 4 - LFSB 251700Z 15004KT CAVOK 14/09 Q1007 NOSIG
2020-10-25 17:30 SW 210°
(160°–230°)
3 - LFSB 251630Z 21003KT 160V230 9999 FEW050 BKN120 BKN220 15/10 Q1006 NOSIG
2020-10-25 17:00 S 200° 3 - LFSB 251600Z 20003KT 9999 FEW050 BKN130 BKN220 16/09 Q1007 NOSIG
2020-10-25 16:30 - 2 - LFSB 251530Z VRB02KT 9999 FEW036 SCT140 BKN220 17/08 Q1007 NOSIG
2020-10-25 16:00 SO 130° 6 - LFSB 251500Z 13006KT 9999 FEW036 SCT160 BKN220 17/08 Q1006 NOSIG
2020-10-25 15:30 SO 140° 8 - LFSB 251430Z 14008KT 9999 FEW036 SCT160 BKN240 18/09 Q1007 NOSIG
2020-10-25 15:00 SO 130° 6 - LFSB 251400Z 13006KT 9999 FEW036 SCT160 BKN260 18/09 Q1007 NOSIG
2020-10-25 14:30 SO 130°
(100°–170°)
6 - LFSB 251330Z 13006KT 100V170 9999 FEW036 SCT160 BKN260 19/08 Q1007 NOSIG
2020-10-25 14:00 S 160°
(120°–220°)
5 - LFSB 251300Z 16005KT 120V220 9999 FEW036 BKN270 19/08 Q1007 NOSIG
2020-10-25 13:30 SO 130° 9 - LFSB 251230Z 13009KT 9999 FEW033 BKN270 18/08 Q1008 NOSIG
2020-10-25 13:00 O 100°
(60°–140°)
6 0–1 LFSB 251200Z 10006KT 060V140 9999 FEW033 BKN270 18/09 Q1008 NOSIG
2020-10-25 12:30 SO 120° 6 - LFSB 251130Z 12006KT 9999 FEW033 BKN270 18/08 Q1009 NOSIG
2020-10-25 12:00 O 110°
(70°–160°)
4 - LFSB 251100Z 11004KT 070V160 9999 FEW030 SCT180 BKN270 17/09 Q1009 NOSIG
2020-10-25 11:30 SO 120°
(90°–150°)
7 - LFSB 251030Z 12007KT 090V150 9999 FEW030 BKN280 16/10 Q1010 NOSIG
2020-10-25 11:00 SO 130°
(90°–150°)
6 - LFSB 251000Z 13006KT 090V150 9999 FEW030 BKN260 15/10 Q1010 NOSIG
2020-10-25 10:30 O 110° 7 - LFSB 250930Z 11007KT 9999 FEW030 BKN260 14/09 Q1010 NOSIG
2020-10-25 10:00 SO 140° 7 - LFSB 250900Z 14007KT 9999 FEW028 BKN260 13/09 Q1010 NOSIG
2020-10-25 09:30 SO 140° 6 - LFSB 250830Z 14006KT CAVOK 12/09 Q1010 NOSIG
2020-10-25 09:00 S 180° 4 - LFSB 250800Z 18004KT CAVOK 10/09 Q1011 NOSIG
2020-10-25 08:30 S 160° 6 - LFSB 250730Z 16006KT CAVOK 09/08 Q1011 NOSIG
2020-10-25 08:00 S 170° 6 - LFSB 250700Z 17006KT CAVOK 08/08 Q1011 NOSIG
2020-10-25 07:30 - 1 - LFSB 250630Z VRB01KT 9999 FEW003 BKN220 07/06 Q1011 NOSIG
2020-10-25 07:00 S 170°
(140°–200°)
4 - LFSB 250600Z 17004KT 140V200 9999 FEW003 BKN220 07/07 Q1011 NOSIG